Time;durP1;ratioP1;P1;durP2;ratioP2;P2;SDS_P1;SDS_P2;PMS_P1;PMS_P2;Temp;Humidity;BMP_temperature;BMP_pressure;BME280_temperature;BME280_humidity;BME280_pressure;Samples;Min_cycle;Max_cycle;Signal;HPM_P1;HPM_P2
2024/03/12 00:00:38;;;;;;;9.15;6.32;;;21.30;56.20;;;;;;5025031;27;92533;-51
2024/03/12 00:03:09;;;;;;;9.60;6.35;;;21.30;56.30;;;;;;5009925;27;93253;-53
2024/03/12 00:05:35;;;;;;;9.68;6.80;;;21.30;56.20;;;;;;5026896;27;94365;-51
2024/03/12 00:08:01;;;;;;;10.80;7.03;;;21.30;56.10;;;;;;5022042;27;92327;-51
2024/03/12 00:10:29;;;;;;;9.65;6.60;;;21.20;56.20;;;;;;5019619;27;91690;-53
2024/03/12 00:12:58;;;;;;;9.27;6.32;;;21.30;56.20;;;;;;5008012;27;93076;-55
2024/03/12 00:15:24;;;;;;;10.30;6.90;;;21.30;56.10;;;;;;5018388;27;93154;-53
2024/03/12 00:17:53;;;;;;;10.43;6.80;;;21.20;56.10;;;;;;5025573;27;93068;-52
2024/03/12 00:20:29;;;;;;;9.60;6.45;;;21.20;56.00;;;;;;5028000;27;92185;-53
2024/03/12 00:22:58;;;;;;;9.13;6.50;;;21.20;55.90;;;;;;5028121;28;93168;-55
2024/03/12 00:25:24;;;;;;;11.68;6.80;;;21.20;55.80;;;;;;5020785;27;92810;-55
2024/03/12 00:27:54;;;;;;;12.73;6.43;;;21.20;55.90;;;;;;5023915;27;91975;-53
2024/03/12 00:30:24;;;;;;;10.77;7.10;;;21.20;55.90;;;;;;5023266;27;92268;-58
2024/03/12 00:32:56;;;;;;;8.82;6.15;;;21.20;56.00;;;;;;5022248;27;94701;-53
2024/03/12 00:35:23;;;;;;;11.43;7.30;;;21.20;55.80;;;;;;5020525;27;92888;-56
2024/03/12 00:37:52;;;;;;;12.13;7.32;;;21.20;55.90;;;;;;5027301;27;92372;-50
2024/03/12 00:40:22;;;;;;;11.77;7.13;;;21.20;55.80;;;;;;5021140;27;93008;-52
2024/03/12 00:42:47;;;;;;;;;;;21.10;55.70;;;;;;5029953;27;94134;-52
2024/03/12 00:45:14;;;;;;;11.10;7.03;;;21.10;56.30;;;;;;5025852;27;93691;-51
2024/03/12 00:47:41;;;;;;;11.07;6.63;;;21.20;55.80;;;;;;5025473;27;92218;-53
2024/03/12 00:50:11;;;;;;;12.43;7.30;;;21.10;55.70;;;;;;5031477;28;92295;-50
2024/03/12 00:52:43;;;;;;;11.20;7.50;;;21.10;55.70;;;;;;5029741;27;93183;-53
2024/03/12 00:55:09;;;;;;;11.80;7.38;;;21.10;55.70;;;;;;5027426;27;92416;-54
2024/03/12 00:57:38;;;;;;;12.95;7.45;;;21.10;55.60;;;;;;5025522;27;92561;-52
2024/03/12 01:00:16;;;;;;;12.57;7.40;;;21.10;55.70;;;;;;5016326;27;92284;-56
2024/03/12 01:02:48;;;;;;;9.43;7.13;;;21.10;55.60;;;;;;5011027;27;93179;-56
2024/03/12 01:05:16;;;;;;;11.10;8.02;;;21.10;55.60;;;;;;5009719;27;93110;-50
2024/03/12 01:07:42;;;;;;;10.30;7.35;;;21.10;55.60;;;;;;5012102;28;92945;-53
2024/03/12 01:10:08;;;;;;;11.10;6.85;;;21.10;55.40;;;;;;5009326;27;92497;-50
2024/03/12 01:12:35;;;;;;;11.00;6.75;;;21.10;55.50;;;;;;5009212;27;93060;-52
2024/03/12 01:15:01;;;;;;;10.27;6.53;;;21.10;55.60;;;;;;5011283;27;92879;-52
2024/03/12 01:17:26;;;;;;;11.73;7.80;;;21.10;55.50;;;;;;5011624;27;92347;-50
2024/03/12 01:19:52;;;;;;;11.40;7.45;;;21.10;55.50;;;;;;5010483;28;92115;-54
2024/03/12 01:22:24;;;;;;;11.00;7.07;;;21.00;55.40;;;;;;5009670;27;93675;-57
2024/03/12 01:24:51;;;;;;;11.05;7.20;;;21.00;55.40;;;;;;5010976;27;92961;-52
2024/03/12 01:27:17;;;;;;;12.05;8.00;;;21.00;55.40;;;;;;5011364;27;92526;-50
2024/03/12 01:29:43;;;;;;;10.30;6.90;;;21.00;55.30;;;;;;5010803;27;92493;-56
2024/03/12 01:32:09;;;;;;;10.43;6.60;;;21.00;55.30;;;;;;5010442;28;93610;-48
2024/03/12 01:34:35;;;;;;;11.27;7.03;;;21.00;55.20;;;;;;5009904;27;93741;-54
2024/03/12 01:37:04;;;;;;;13.93;8.15;;;21.00;55.10;;;;;;5042682;27;92704;-48
2024/03/12 01:39:38;;;;;;;11.30;6.85;;;21.00;55.20;;;;;;5027767;27;92467;-54
2024/03/12 01:42:05;;;;;;;11.20;6.70;;;21.00;55.10;;;;;;5028201;27;94295;-50
2024/03/12 01:44:35;;;;;;;11.77;7.55;;;21.00;55.20;;;;;;5028081;27;92418;-51
2024/03/12 01:47:04;;;;;;;;;;;21.00;55.10;;;;;;5024307;27;91864;-52
2024/03/12 01:49:31;;;;;;;10.68;7.47;;;21.00;55.30;;;;;;5031459;27;91573;-51
2024/03/12 01:51:57;;;;;;;11.98;7.30;;;20.90;55.20;;;;;;5020637;27;93062;-56
2024/03/12 01:54:23;;;;;;;11.98;7.45;;;21.00;55.30;;;;;;5009794;27;92699;-56
2024/03/12 01:56:49;;;;;;;11.63;7.38;;;21.00;55.30;;;;;;5014887;27;93533;-53
2024/03/12 01:59:16;;;;;;;10.63;6.82;;;21.00;55.10;;;;;;5009736;27;92455;-48
2024/03/12 02:01:42;;;;;;;10.38;7.15;;;20.90;55.00;;;;;;5009272;28;95768;-54
2024/03/12 02:04:09;;;;;;;9.48;6.50;;;21.00;55.10;;;;;;5010889;27;92462;-53
2024/03/12 02:06:36;;;;;;;12.88;7.93;;;21.00;55.00;;;;;;5010964;27;92286;-50
2024/03/12 02:09:06;;;;;;;12.23;7.43;;;20.90;55.10;;;;;;5025486;27;92498;-51
2024/03/12 02:11:31;;;;;;;11.48;7.55;;;20.90;55.00;;;;;;5043749;27;94534;-56
2024/03/12 02:13:57;;;;;;;12.40;8.35;;;20.90;54.90;;;;;;5041338;28;93264;-59
2024/03/12 02:16:23;;;;;;;11.48;7.90;;;20.90;55.00;;;;;;5036394;27;91717;-56
2024/03/12 02:18:49;;;;;;;11.18;7.38;;;20.90;54.90;;;;;;5035069;27;91870;-58
2024/03/12 02:21:14;;;;;;;11.57;7.07;;;20.90;54.90;;;;;;5028892;27;92976;-53
2024/03/12 02:23:43;;;;;;;11.13;7.55;;;20.90;54.90;;;;;;5010702;28;93967;-54
2024/03/12 02:26:10;;;;;;;10.13;6.35;;;20.80;54.90;;;;;;5042381;27;92553;-55
2024/03/12 02:28:37;;;;;;;10.43;6.82;;;20.90;55.00;;;;;;5025485;28;91975;-54
2024/03/12 02:31:04;;;;;;;11.32;7.43;;;20.90;54.90;;;;;;5044174;27;94102;-56
2024/03/12 02:33:31;;;;;;;10.25;7.32;;;20.80;54.90;;;;;;5019402;27;92205;-50
2024/03/12 02:35:57;;;;;;;10.60;6.88;;;20.80;54.80;;;;;;5013611;27;92294;-53
2024/03/12 02:38:22;;;;;;;9.93;7.05;;;20.80;54.80;;;;;;5023356;27;91434;-55
2024/03/12 02:40:49;;;;;;;11.02;7.07;;;20.80;54.90;;;;;;5019867;28;92723;-55
2024/03/12 02:43:15;;;;;;;9.90;6.28;;;20.80;54.80;;;;;;5010275;27;93351;-53
2024/03/12 02:45:42;;;;;;;11.40;7.43;;;20.80;54.70;;;;;;5033619;27;92989;-57
2024/03/12 02:48:09;;;;;;;12.57;7.45;;;20.80;54.70;;;;;;5022443;27;92340;-51
2024/03/12 02:50:36;;;;;;;10.85;6.95;;;20.80;54.80;;;;;;5008668;27;93215;-53
2024/03/12 02:53:03;;;;;;;10.10;6.97;;;20.80;54.70;;;;;;5010237;27;93096;-56
2024/03/12 02:55:29;;;;;;;12.75;7.95;;;20.80;54.60;;;;;;5008422;28;92121;-53
2024/03/12 02:57:55;;;;;;;10.68;7.10;;;20.80;54.50;;;;;;5010367;27;92607;-55
2024/03/12 03:00:21;;;;;;;11.40;7.88;;;20.80;54.60;;;;;;5008341;27;94280;-52
2024/03/12 03:02:47;;;;;;;10.43;7.18;;;20.80;54.50;;;;;;5010901;28;93663;-54
2024/03/12 03:05:15;;;;;;;11.23;7.35;;;20.80;54.40;;;;;;5030013;28;92388;-52
2024/03/12 03:07:41;;;;;;;13.43;6.97;;;20.80;54.50;;;;;;5030773;27;92466;-49
2024/03/12 03:10:07;;;;;;;11.88;7.70;;;20.80;54.70;;;;;;5028202;27;94691;-54
2024/03/12 03:12:33;;;;;;;11.57;7.47;;;20.80;54.60;;;;;;5030100;27;93904;-53
2024/03/12 03:14:58;;;;;;;10.98;6.43;;;20.80;54.60;;;;;;5029814;27;92282;-51
2024/03/12 03:17:24;;;;;;;8.95;6.45;;;20.70;54.60;;;;;;5030853;27;92458;-54
2024/03/12 03:19:51;;;;;;;11.65;7.53;;;20.80;54.60;;;;;;5030652;27;93223;-52
2024/03/12 03:22:17;;;;;;;11.70;7.70;;;20.80;54.60;;;;;;5009559;27;92303;-49
2024/03/12 03:24:43;;;;;;;10.98;6.93;;;20.80;54.60;;;;;;5017355;27;91859;-50
2024/03/12 03:27:09;;;;;;;12.02;7.53;;;20.70;54.50;;;;;;5029950;27;91902;-55
2024/03/12 03:29:36;;;;;;;13.55;7.72;;;20.70;54.50;;;;;;5016028;27;93368;-54
2024/03/12 03:32:07;;;;;;;14.15;8.52;;;20.70;54.40;;;;;;5010491;28;93040;-53
2024/03/12 03:34:33;;;;;;;11.70;6.60;;;20.70;54.50;;;;;;5023355;27;93342;-55
2024/03/12 03:36:59;;;;;;;10.85;7.00;;;20.70;54.60;;;;;;5009690;27;92477;-54
2024/03/12 03:39:30;;;;;;;10.60;7.20;;;20.70;54.50;;;;;;5010472;27;93502;-53
2024/03/12 03:41:56;;;;;;;10.60;6.95;;;20.70;54.40;;;;;;5008306;27;93847;-52
2024/03/12 03:44:23;;;;;;;11.57;7.65;;;20.70;54.30;;;;;;5025712;27;92177;-52
2024/03/12 03:46:50;;;;;;;11.65;7.60;;;20.70;54.30;;;;;;5011223;28;92100;-51
2024/03/12 03:49:19;;;;;;;9.52;6.95;;;20.70;54.30;;;;;;5011803;27;93850;-55
2024/03/12 03:51:45;;;;;;;14.23;7.82;;;20.60;54.20;;;;;;5025013;27;94256;-53
2024/03/12 03:54:12;;;;;;;11.02;8.15;;;20.70;54.30;;;;;;5007888;28;92207;-56
2024/03/12 03:56:38;;;;;;;10.10;6.82;;;20.70;54.30;;;;;;5013006;27;91989;-53
2024/03/12 03:59:05;;;;;;;10.48;7.32;;;20.70;54.30;;;;;;5026127;28;95425;-56
2024/03/12 04:01:34;;;;;;;11.20;8.25;;;20.70;54.20;;;;;;5019502;27;94848;-57
2024/03/12 04:04:10;;;;;;;;;;;20.60;54.20;;;;;;5025726;27;92665;-53
2024/03/12 04:06:45;;;;;;;;;;;20.60;54.20;;;;;;5031327;27;92570;-54
2024/03/12 04:09:11;;;;;;;;;;;20.60;54.20;;;;;;5025209;27;92877;-54
2024/03/12 04:11:38;;;;;;;;;;;20.60;54.20;;;;;;5021951;27;92393;-54
2024/03/12 04:14:03;;;;;;;;;;;20.60;54.20;;;;;;5033602;27;92364;-53
2024/03/12 04:16:31;;;;;;;;;;;20.60;54.20;;;;;;5032548;27;91541;-50
2024/03/12 04:19:00;;;;;;;;;;;20.60;54.40;;;;;;5033228;27;92657;-56
2024/03/12 04:21:26;;;;;;;;;;;20.60;54.00;;;;;;5032603;27;92592;-53
2024/03/12 04:23:51;;;;;;;;;;;20.60;54.10;;;;;;5032445;27;93823;-52
2024/03/12 04:26:19;;;;;;;;;;;20.60;54.00;;;;;;5015582;27;91984;-51
2024/03/12 04:28:45;;;;;;;;;;;20.60;54.00;;;;;;5017381;28;93265;-53
2024/03/12 04:31:11;;;;;;;;;;;20.70;54.00;;;;;;5016318;27;92650;-56
2024/03/12 04:33:37;;;;;;;;;;;20.60;53.90;;;;;;5017823;27;92583;-56
2024/03/12 04:36:06;;;;;;;;;;;20.60;54.00;;;;;;5036295;27;92214;-51
2024/03/12 04:38:33;;;;;;;;;;;20.60;53.80;;;;;;5035463;27;94094;-49
2024/03/12 04:41:01;;;;;;;;;;;20.60;53.50;;;;;;5026534;27;92055;-46
2024/03/12 04:43:27;;;;;;;;;;;20.60;53.80;;;;;;5016607;27;92556;-54
2024/03/12 04:45:52;;;;;;;;;;;20.60;53.70;;;;;;5033781;27;91929;-53
2024/03/12 04:48:18;;;;;;;;;;;20.60;53.70;;;;;;5033211;27;94030;-51
2024/03/12 04:50:43;;;;;;;;;;;20.60;53.80;;;;;;5035960;27;93293;-50
2024/03/12 04:53:10;;;;;;;;;;;20.60;53.80;;;;;;5037046;28;92171;-56
2024/03/12 04:55:37;;;;;;;;;;;20.60;53.90;;;;;;5021628;27;92176;-51
2024/03/12 04:58:04;;;;;;;;;;;20.60;53.90;;;;;;5015261;27;92346;-56
2024/03/12 05:00:29;;;;;;;;;;;20.60;53.90;;;;;;5014441;27;93040;-56
2024/03/12 05:02:55;;;;;;;;;;;20.60;53.90;;;;;;5014650;27;92218;-54
2024/03/12 05:05:21;;;;;;;;;;;20.60;54.00;;;;;;5019356;27;92027;-55
2024/03/12 05:07:47;;;;;;;;;;;20.60;53.80;;;;;;5020485;28;92970;-51
2024/03/12 05:10:16;;;;;;;;;;;20.60;53.80;;;;;;5027359;27;92877;-49
2024/03/12 05:12:43;;;;;;;;;;;20.60;53.70;;;;;;5014402;27;92932;-52
2024/03/12 05:15:09;;;;;;;;;;;20.60;53.80;;;;;;5011412;27;93888;-53
2024/03/12 05:17:41;;;;;;;;;;;20.60;53.80;;;;;;5010747;27;94450;-51
2024/03/12 05:20:09;;;;;;;;;;;20.60;53.70;;;;;;5026859;28;93090;-56
2024/03/12 05:22:35;;;;;;;;;;;20.60;53.80;;;;;;5030293;27;92518;-50
2024/03/12 05:25:01;;;;;;;;;;;20.50;53.80;;;;;;5015945;27;92643;-55
2024/03/12 05:27:35;;;;;;;;;;;20.50;53.80;;;;;;5031454;27;93406;-51
2024/03/12 05:30:09;;;;;;;;;;;20.50;53.70;;;;;;5032666;27;92332;-54
2024/03/12 05:32:37;;;;;;;;;;;20.50;53.60;;;;;;5031566;27;92221;-53
2024/03/12 05:35:04;;;;;;;;;;;20.50;53.70;;;;;;5024767;28;92022;-51
2024/03/12 05:37:40;;;;;;;;;;;20.50;53.70;;;;;;5012002;27;94001;-54
2024/03/12 05:40:16;;;;;;;;;;;20.50;53.70;;;;;;5012835;27;94698;-53
2024/03/12 05:48:12;;;;;;;;;;;20.50;53.60;;;;;;5014045;27;92873;-54
2024/03/12 05:50:41;;;;;;;;;;;20.50;53.70;;;;;;5012736;27;93144;-51
2024/03/12 05:53:10;;;;;;;;;;;20.50;53.70;;;;;;5015722;28;92559;-56
2024/03/12 05:55:36;;;;;;;;;;;20.50;53.80;;;;;;5014277;27;91386;-51
2024/03/12 05:58:02;;;;;;;;;;;20.50;53.90;;;;;;5024773;27;93473;-52
2024/03/12 06:00:28;;;;;;;;;;;20.40;53.70;;;;;;5032562;27;92199;-54
2024/03/12 06:02:54;;;;;;;;;;;20.50;53.80;;;;;;5033292;27;93546;-51
2024/03/12 06:05:20;;;;;;;;;;;20.50;53.80;;;;;;5025898;27;92149;-49
2024/03/12 06:07:48;;;;;;;;;;;20.50;53.70;;;;;;5025586;28;93043;-55
2024/03/12 06:10:14;;;;;;;;;;;20.40;53.80;;;;;;5032517;27;92817;-49
2024/03/12 06:12:39;;;;;;;;;;;20.40;53.80;;;;;;5032739;27;92803;-54
2024/03/12 06:15:05;;;;;;;;;;;20.40;53.70;;;;;;5030375;27;92373;-53
2024/03/12 06:17:32;;;;;;;;;;;20.40;53.70;;;;;;5022693;27;93608;-57
2024/03/12 06:19:57;;;;;;;;;;;20.50;53.90;;;;;;5014202;28;92535;-56
2024/03/12 06:22:24;;;;;;;;;;;20.40;53.80;;;;;;5019774;27;92543;-51
2024/03/12 06:24:50;;;;;;;;;;;20.40;53.70;;;;;;5023863;28;92312;-54
2024/03/12 06:27:18;;;;;;;;;;;20.40;53.80;;;;;;5017985;27;94637;-56
2024/03/12 06:29:45;;;;;;;;;;;20.40;53.80;;;;;;5025765;27;94736;-55
2024/03/12 06:32:10;;;;;;;;;;;20.40;53.70;;;;;;5012278;28;92353;-53
2024/03/12 06:34:36;;;;;;;;;;;20.40;53.80;;;;;;5011125;27;92270;-51
2024/03/12 06:37:02;;;;;;;;;;;20.40;53.60;;;;;;5013348;27;93059;-54
2024/03/12 06:39:31;;;;;;;;;;;20.40;53.70;;;;;;5011458;27;92395;-51
2024/03/12 06:42:07;;;;;;;;;;;20.40;53.70;;;;;;5011973;27;93104;-51
2024/03/12 06:44:35;;;;;;;;;;;20.40;53.70;;;;;;5012299;27;91607;-56
2024/03/12 06:47:00;;;;;;;;;;;20.40;53.60;;;;;;5012725;28;92737;-53
2024/03/12 06:49:27;;;;;;;;;;;20.40;53.60;;;;;;5026704;27;93121;-52
2024/03/12 06:51:53;;;;;;;;;;;20.40;53.60;;;;;;5011110;27;93481;-53
2024/03/12 06:54:21;;;;;;;;;;;20.40;53.70;;;;;;5011229;27;92308;-53
2024/03/12 06:56:46;;;;;;;;;;;20.40;53.80;;;;;;5009681;27;93760;-51
2024/03/12 06:59:15;;;;;;;;;;;20.40;53.70;;;;;;5031398;28;93221;-54
2024/03/12 07:01:41;;;;;;;;;;;20.40;53.80;;;;;;5030208;27;92396;-52
2024/03/12 07:04:11;;;;;;;;;;;20.40;53.70;;;;;;5026529;27;92979;-52
2024/03/12 07:06:46;;;;;;;;;;;20.40;53.60;;;;;;5039699;27;92927;-51
2024/03/12 07:09:22;;;;;;;;;;;20.40;53.70;;;;;;5029222;27;93762;-53
2024/03/12 07:11:49;;;;;;;;;;;20.40;53.80;;;;;;5029839;27;92346;-52
2024/03/12 07:14:27;;;;;;;;;;;20.40;53.70;;;;;;5029947;27;92512;-53
2024/03/12 07:16:52;;;;;;;;;;;20.40;53.60;;;;;;5028464;28;95879;-51
2024/03/12 07:19:19;;;;;;;;;;;20.40;53.50;;;;;;5029922;27;93329;-51
2024/03/12 07:21:45;;;;;;;;;;;20.40;53.60;;;;;;5030997;27;92359;-50
2024/03/12 07:24:15;;;;;;;;;;;20.40;53.60;;;;;;5027048;27;92777;-54
2024/03/12 07:26:40;;;;;;;;;;;20.40;53.60;;;;;;5028960;27;93228;-49
2024/03/12 07:29:09;;;;;;;;;;;20.30;53.50;;;;;;5028780;28;92967;-53
2024/03/12 07:31:35;;;;;;;;;;;20.30;53.50;;;;;;5029666;27;92248;-58
2024/03/12 07:34:01;;;;;;;;;;;20.40;53.50;;;;;;5017389;27;91816;-56
2024/03/12 07:36:29;;;;;;;;;;;20.40;53.30;;;;;;5025918;27;94134;-49
2024/03/12 07:38:56;;;;;;;;;;;20.40;53.30;;;;;;5011078;27;92419;-51
2024/03/12 07:41:23;;;;;;;;;;;20.50;53.40;;;;;;5025493;27;93441;-49
2024/03/12 07:43:49;;;;;;;;;;;20.50;53.50;;;;;;5011295;28;92422;-48
2024/03/12 07:46:15;;;;;;;;;;;20.60;53.70;;;;;;5008614;27;94904;-53
2024/03/12 07:48:42;;;;;;;;;;;20.70;54.20;;;;;;5012051;27;92968;-56
2024/03/12 07:51:09;;;;;;;;;;;20.80;53.70;;;;;;5016248;27;92693;-58
2024/03/12 07:53:35;;;;;;;;;;;20.90;53.60;;;;;;5028395;27;92165;-54
2024/03/12 07:56:01;;;;;;;;;;;21.00;53.40;;;;;;5028956;27;93121;-50
2024/03/12 07:58:28;;;;;;;;;;;21.10;52.90;;;;;;4992632;27;92322;-52
2024/03/12 08:00:54;;;;;;;;;;;21.20;52.70;;;;;;4998573;27;92770;-51
2024/03/12 08:03:20;;;;;;;;;;;21.30;52.30;;;;;;4993057;28;92594;-56
2024/03/12 08:05:46;;;;;;;;;;;21.30;52.30;;;;;;5027815;27;94551;-58
2024/03/12 08:08:12;;;;;;;;;;;21.30;52.80;;;;;;5029445;27;94901;-53
2024/03/12 08:10:39;;;;;;;;;;;21.30;52.80;;;;;;5014305;28;92612;-55
2024/03/12 08:13:05;;;;;;;;;;;21.30;53.00;;;;;;5014876;28;92802;-48
2024/03/12 08:15:31;;;;;;;;;;;21.20;53.10;;;;;;5016377;27;92997;-55
2024/03/12 08:17:57;;;;;;;;;;;21.20;53.10;;;;;;5016401;27;92460;-57
2024/03/12 08:20:23;;;;;;;;;;;21.20;53.20;;;;;;5014478;27;92175;-54
2024/03/12 08:22:49;;;;;;;;;;;21.20;53.50;;;;;;5005933;28;91565;-58
2024/03/12 08:25:16;;;;;;;;;;;21.20;53.00;;;;;;5027055;27;93228;-57
2024/03/12 08:27:44;;;;;;;;;;;21.10;53.40;;;;;;4997285;27;92553;-57
2024/03/12 08:30:11;;;;;;;;;;;21.10;53.70;;;;;;4992197;27;93714;-50
2024/03/12 08:32:37;;;;;;;;;;;21.00;53.90;;;;;;5003482;28;92172;-54
2024/03/12 08:37:03;;;;;;;10.23;6.10;;;21.20;54.50;;;;;;5035838;27;86367;-62
2024/03/12 08:39:29;;;;;;;11.98;6.65;;;21.90;52.70;;;;;;5017438;27;85931;-62
2024/03/12 08:41:55;;;;;;;10.55;6.63;;;22.30;51.40;;;;;;4991390;27;85858;-64
2024/03/12 08:44:21;;;;;;;10.60;6.03;;;22.50;50.90;;;;;;4980245;28;87713;-63
2024/03/12 08:46:49;;;;;;;10.93;6.63;;;22.70;50.50;;;;;;5016716;28;85370;-64
2024/03/12 08:49:16;;;;;;;9.43;6.15;;;22.80;50.10;;;;;;5014691;28;85480;-63
2024/03/12 08:51:41;;;;;;;49.60;12.43;;;22.80;50.00;;;;;;4998215;28;85695;-64
2024/03/12 08:54:08;;;;;;;58.70;18.60;;;22.90;48.80;;;;;;4993054;28;86619;-64
2024/03/12 08:56:37;;;;;;;35.90;11.82;;;22.90;47.60;;;;;;4989702;28;85754;-64
2024/03/12 08:59:08;;;;;;;30.60;12.23;;;22.90;48.30;;;;;;4975853;28;85994;-64
2024/03/12 09:01:34;;;;;;;39.05;12.00;;;22.90;47.80;;;;;;4971475;28;86577;-63
2024/03/12 09:04:02;;;;;;;30.77;10.88;;;22.90;48.40;;;;;;4996394;28;86040;-63
2024/03/12 09:06:27;;;;;;;30.80;11.25;;;22.90;48.30;;;;;;4992732;28;86198;-64
2024/03/12 09:08:54;;;;;;;35.95;11.70;;;22.90;48.30;;;;;;4991201;28;85804;-64
2024/03/12 09:11:21;;;;;;;27.13;11.38;;;22.90;48.40;;;;;;4991186;28;85810;-63
2024/03/12 09:13:48;;;;;;;28.58;12.60;;;22.90;48.50;;;;;;4995030;28;86322;-64
2024/03/12 09:16:14;;;;;;;25.25;10.65;;;22.90;48.40;;;;;;4988897;28;86775;-63
2024/03/12 09:18:42;;;;;;;24.27;11.18;;;22.90;48.30;;;;;;4987498;28;85742;-64
2024/03/12 09:21:14;;;;;;;24.15;11.48;;;22.90;48.40;;;;;;5007496;28;85649;-64
2024/03/12 09:23:41;;;;;;;32.72;12.32;;;22.90;48.30;;;;;;4981099;28;87065;-64
2024/03/12 09:26:07;;;;;;;21.17;10.52;;;22.90;48.40;;;;;;4995854;28;86362;-64
2024/03/12 09:28:33;;;;;;;20.85;10.82;;;22.90;48.20;;;;;;4987420;28;85900;-64
2024/03/12 09:30:59;;;;;;;24.15;12.05;;;22.90;48.00;;;;;;4988215;28;86206;-64
2024/03/12 09:33:26;;;;;;;22.40;11.32;;;22.90;47.90;;;;;;4985209;28;86516;-64
2024/03/12 09:35:53;;;;;;;25.70;12.15;;;22.90;48.30;;;;;;4969327;28;86497;-63
2024/03/12 09:38:19;;;;;;;22.45;11.13;;;22.90;48.30;;;;;;4988087;28;86340;-63
2024/03/12 09:40:47;;;;;;;21.20;10.77;;;22.90;48.60;;;;;;4986997;28;85794;-64
2024/03/12 09:43:18;;;;;;;25.92;11.27;;;22.90;48.40;;;;;;4988471;28;86875;-64
2024/03/12 09:45:45;;;;;;;27.48;11.23;;;22.90;48.30;;;;;;4994281;28;87966;-63
2024/03/12 09:48:14;;;;;;;23.75;10.10;;;22.90;48.20;;;;;;4960804;28;85843;-64
2024/03/12 09:50:43;;;;;;;20.73;11.55;;;22.90;48.40;;;;;;4974314;28;85874;-63
2024/03/12 09:53:14;;;;;;;25.90;11.02;;;23.00;48.70;;;;;;4975929;28;87042;-64
2024/03/12 09:55:41;;;;;;;19.05;10.30;;;23.00;48.80;;;;;;4988474;28;90975;-64
2024/03/12 09:58:07;;;;;;;17.45;9.02;;;23.00;48.80;;;;;;4956088;28;86852;-64
2024/03/12 10:00:36;;;;;;;22.75;9.77;;;23.00;48.80;;;;;;4985666;28;86445;-63
2024/03/12 10:03:03;;;;;;;20.40;9.93;;;23.10;48.90;;;;;;4979536;28;87481;-63
2024/03/12 10:05:34;;;;;;;21.90;9.90;;;23.10;48.80;;;;;;4958616;28;86941;-63
2024/03/12 10:08:07;;;;;;;20.95;9.20;;;23.10;49.20;;;;;;4978606;28;85828;-66
2024/03/12 10:10:37;;;;;;;18.27;10.75;;;23.10;49.50;;;;;;4952828;28;86599;-64
2024/03/12 10:13:04;;;;;;;21.38;9.68;;;23.10;49.30;;;;;;4976745;28;89457;-64
2024/03/12 10:15:33;;;;;;;22.08;9.52;;;23.10;49.30;;;;;;4984317;28;87049;-64
2024/03/12 10:18:00;;;;;;;21.42;9.93;;;23.10;49.20;;;;;;4981727;28;86169;-63
2024/03/12 10:20:30;;;;;;;26.17;10.50;;;23.10;49.20;;;;;;4978984;28;86488;-63
2024/03/12 10:23:15;;;;;;;21.15;9.32;;;23.10;49.30;;;;;;4983480;28;85982;-64
2024/03/12 10:25:42;;;;;;;20.17;9.70;;;23.10;49.40;;;;;;4990161;28;89542;-65
2024/03/12 10:28:08;;;;;;;16.63;9.32;;;23.10;49.30;;;;;;4985428;28;85770;-64
2024/03/12 10:30:37;;;;;;;17.25;8.63;;;23.10;49.30;;;;;;4991014;28;86205;-63
2024/03/12 10:33:17;;;;;;;22.00;10.25;;;23.20;49.30;;;;;;4977083;28;86255;-63
2024/03/12 10:35:45;;;;;;;20.15;9.30;;;23.20;49.20;;;;;;4964194;28;86426;-64
2024/03/12 10:38:25;;;;;;;19.33;10.10;;;23.10;49.20;;;;;;4974739;28;86217;-64
2024/03/12 10:40:55;;;;;;;20.67;9.52;;;23.10;49.50;;;;;;4974248;28;85809;-65
2024/03/12 10:43:24;;;;;;;16.63;8.95;;;23.10;50.20;;;;;;4958220;28;89173;-66
2024/03/12 10:45:50;;;;;;;19.00;9.23;;;23.10;49.50;;;;;;4980593;28;87042;-63
2024/03/12 10:48:18;;;;;;;19.95;9.70;;;23.10;49.50;;;;;;4987216;28;86379;-64
2024/03/12 10:50:45;;;;;;;17.38;9.85;;;23.20;49.70;;;;;;4978522;28;85713;-64
2024/03/12 10:53:11;;;;;;;23.35;10.60;;;23.20;49.60;;;;;;4977512;28;87123;-64
2024/03/12 10:55:38;;;;;;;19.23;10.25;;;23.20;49.80;;;;;;4976606;28;86171;-64
2024/03/12 10:58:08;;;;;;;19.17;9.60;;;23.20;49.70;;;;;;4980754;28;85636;-66
2024/03/12 11:00:39;;;;;;;21.65;10.70;;;23.20;49.80;;;;;;4957814;28;86855;-65
2024/03/12 11:03:09;;;;;;;17.52;9.32;;;23.20;50.10;;;;;;4978261;28;86913;-64
2024/03/12 11:05:38;;;;;;;12.52;8.18;;;23.20;50.10;;;;;;4958786;28;88765;-63
2024/03/12 11:08:09;;;;;;;16.50;8.80;;;23.20;50.20;;;;;;4981320;28;85951;-64
2024/03/12 11:10:37;;;;;;;17.25;9.60;;;23.20;50.30;;;;;;4976849;28;85888;-64
2024/03/12 11:13:07;;;;;;;17.83;9.63;;;23.20;50.50;;;;;;4958744;28;87834;-64
2024/03/12 11:15:35;;;;;;;20.35;10.45;;;23.20;50.50;;;;;;4984824;28;87064;-63
2024/03/12 11:18:02;;;;;;;20.38;9.55;;;23.20;50.30;;;;;;4963326;28;87666;-64
2024/03/12 11:20:28;;;;;;;15.57;8.60;;;23.20;50.40;;;;;;4981525;28;85924;-64
2024/03/12 11:23:00;;;;;;;17.40;9.52;;;23.20;50.30;;;;;;4959959;28;88045;-64
2024/03/12 11:25:32;;;;;;;18.80;8.88;;;23.20;50.30;;;;;;4968683;28;86324;-64
2024/03/12 11:28:26;;;;;;;18.27;10.00;;;23.20;50.30;;;;;;4981776;28;85882;-62
2024/03/12 11:30:55;;;;;;;15.88;8.90;;;23.20;50.00;;;;;;4982278;28;85758;-64
2024/03/12 11:33:45;;;;;;;19.03;9.50;;;23.20;49.90;;;;;;4981015;28;86119;-63
2024/03/12 11:36:45;;;;;;;17.58;8.85;;;23.20;50.30;;;;;;4994133;28;87198;-63
2024/03/12 11:39:30;;;;;;;18.35;10.52;;;23.20;50.00;;;;;;4969966;28;86657;-64
2024/03/12 11:42:08;;;;;;;18.00;8.98;;;23.20;49.60;;;;;;4971967;28;86759;-65
2024/03/12 11:44:48;;;;;;;16.13;8.95;;;23.20;49.90;;;;;;4974354;28;87291;-62
2024/03/12 11:47:42;;;;;;;20.83;9.30;;;23.20;49.90;;;;;;4956747;28;86732;-64
2024/03/12 11:50:33;;;;;;;16.60;8.02;;;23.20;50.10;;;;;;4985157;28;85695;-64
2024/03/12 11:53:21;;;;;;;16.25;9.00;;;23.20;50.00;;;;;;4968631;28;86434;-63
2024/03/12 11:56:18;;;;;;;16.35;8.55;;;23.20;50.00;;;;;;4973552;28;90437;-64
2024/03/12 11:58:57;;;;;;;17.35;7.65;;;23.20;49.90;;;;;;4980010;28;91169;-63
2024/03/12 12:01:31;;;;;;;15.43;8.20;;;23.20;49.80;;;;;;4969763;28;86071;-64
2024/03/12 12:04:05;;;;;;;16.25;9.40;;;23.20;49.90;;;;;;4970879;28;85607;-64
2024/03/12 12:06:32;;;;;;;14.77;8.43;;;23.20;50.00;;;;;;4966570;28;85916;-64
2024/03/12 12:09:05;;;;;;;15.52;8.38;;;23.20;49.90;;;;;;4957397;28;85768;-63
2024/03/12 12:11:34;;;;;;;16.13;8.10;;;23.20;49.90;;;;;;4967564;28;85902;-64
2024/03/12 12:14:00;;;;;;;15.02;7.75;;;23.20;49.80;;;;;;4977421;28;85626;-63
2024/03/12 12:16:27;;;;;;;17.52;8.02;;;23.20;49.80;;;;;;4976237;28;86272;-64
2024/03/12 12:19:02;;;;;;;14.13;8.70;;;23.20;50.10;;;;;;4981354;28;85795;-63
2024/03/12 12:21:30;;;;;;;14.02;8.38;;;23.20;49.90;;;;;;4974620;28;86088;-63
2024/03/12 12:23:58;;;;;;;15.60;8.60;;;23.20;49.90;;;;;;4967339;28;86699;-63
2024/03/12 12:26:25;;;;;;;14.27;7.90;;;23.20;49.90;;;;;;4992954;28;87658;-64
2024/03/12 12:28:54;;;;;;;15.52;8.30;;;23.20;49.80;;;;;;4992692;28;86047;-64
2024/03/12 12:31:22;;;;;;;14.02;8.50;;;23.20;49.70;;;;;;4968760;28;86064;-65
2024/03/12 12:33:56;;;;;;;14.37;7.83;;;23.20;49.60;;;;;;4981244;28;87188;-64
2024/03/12 12:36:27;;;;;;;15.00;9.35;;;23.20;49.90;;;;;;4974042;28;86327;-63
2024/03/12 12:38:54;;;;;;;12.68;7.85;;;23.20;49.80;;;;;;4982544;28;86346;-64
2024/03/12 12:41:23;;;;;;;11.57;7.50;;;23.20;49.70;;;;;;4990313;28;86038;-63
2024/03/12 12:43:53;;;;;;;14.93;8.68;;;23.20;49.90;;;;;;4979960;28;86548;-63
2024/03/12 12:46:27;;;;;;;13.85;8.23;;;23.20;49.70;;;;;;4954143;28;86497;-63
2024/03/12 12:48:55;;;;;;;13.98;7.53;;;23.20;49.80;;;;;;4973336;28;86458;-63
2024/03/12 12:51:24;;;;;;;12.37;7.40;;;23.20;49.50;;;;;;4972848;28;86237;-64
2024/03/12 12:54:02;;;;;;;14.77;8.95;;;23.20;49.60;;;;;;4992430;28;86146;-64
2024/03/12 12:56:31;;;;;;;14.55;8.35;;;23.20;49.50;;;;;;4973806;28;86851;-63
2024/03/12 12:59:17;;;;;;;13.00;7.95;;;23.20;49.50;;;;;;4991413;28;86976;-63
2024/03/12 13:01:42;;;;;;;15.45;8.38;;;23.20;49.60;;;;;;4982397;28;88241;-63
2024/03/12 13:04:18;;;;;;;15.75;7.97;;;23.20;49.50;;;;;;4972602;28;85571;-63
2024/03/12 13:06:44;;;;;;;13.48;7.78;;;23.20;49.50;;;;;;4959607;28;88177;-64
2024/03/12 13:09:10;;;;;;;14.32;8.18;;;23.20;49.10;;;;;;4965966;28;87203;-63
2024/03/12 13:11:36;;;;;;;12.60;7.57;;;23.20;49.10;;;;;;4974119;28;87057;-65
2024/03/12 13:14:02;;;;;;;15.73;9.02;;;23.30;49.20;;;;;;4984837;28;87298;-64
2024/03/12 13:16:28;;;;;;;12.80;7.55;;;23.20;48.40;;;;;;4970684;28;86374;-64
2024/03/12 13:18:57;;;;;;;17.00;9.18;;;23.20;48.50;;;;;;4970675;28;86681;-64
2024/03/12 13:21:25;;;;;;;10.77;7.07;;;23.20;48.60;;;;;;4954731;28;85800;-64